Holmes Beach, Florida
Current Conditions -  °F | °C
As of 10:53 PM on Monday 22 Dec 2014 (Local Time) from KSRQ Reporting Station
Clear Clear  
Wind Chill: 69°   Ceiling: Unl
Heat Index: 69°   Visibility: 10mi
Dew Point: 68°   Wind: 9mph
Humidity: 96%   Direction: 170°S
Pressure: 29.94"   Gusts: NA
Location:  27.5°N, 82.71°W
Report Text: KSRQ 230353Z AUTO 17008KT 10SM CLR 21/20 A2994 RMK AO2 SLP137 T02060200
Loading
Personal Weather Stations






























Interactive Weather Map New forecast layout! Learn more

10-Day Weather Forecast

Advertisements
Track Severe Weather on mobile